KGPT/GPT METAR and TAF weather

Enter ICAO airport designator
Station Type Date Time Source
KGPT METAR 2020/01/17 22:53 UTC NOAA

KGPT 172253Z 11014G21KT 10SM OVC026 19/11 A3028 RMK AO2 SLP254 T01890111


Station Type Date Time Source
KGPT Decoded METAR 2020/01/17 22:53 UTC NOAA

GULFPORT-BILOXI REG AIRPORT , MS, United States (KGPT) 30-25N 089-05W 14M
Jan 17, 2020 - 05:53 PM EST / 2020.01.17 2253 UTC
Wind: from the ESE (110 degrees) at 16 MPH (14 KT) gusting to 24 MPH (21 KT):0
Visibility: 10 mile(s):0
Sky conditions: overcast
Temperature: 66.0 F (18.9 C)
Dew Point: 52.0 F (11.1 C)
Relative Humidity: 60%
Pressure (altimeter): 30.28 in. Hg (1025 hPa)
ob: KGPT 172253Z 11014G21KT 10SM OVC026 19/11 A3028 RMK AO2 SLP254 T01890111
cycle: 23

Station Type Date Time Source
KGPT TAF 2020/01/17 18:22 UTC NOAA

TAF KGPT 171720Z 1718/1818 09009KT P6SM SCT035 BKN130
FM180600 12010G20KT P6SM VCSH SCT035 OVC060
FM181300 14007KT P6SM -SHRA OVC015
FM181500 17006KT 5SM -SHRA BR SCT008 OVC015

Example: see airport list